Air Navigation Services of Czech Republic
Airport: LKPD Updated:  29.04.2017 07:06:12  UTC
 METAR LKPD 29.04. 07:00 ...
METAR LKPD 290700Z VRB02KT 9999 FEW011 SCT050 06/03 Q1017 =